sensor_id;sensor_type;location;lat;lon;timestamp;pressure;altitude;pressure_sealevel;temperature;humidity
74913;BME280;63878;55.624;37.304;2022-12-29T00:09:49;98728.00;;;-0.22;72.09
74913;BME280;63878;55.624;37.304;2022-12-29T00:19:49;98733.75;;;-0.14;70.64
74913;BME280;63878;55.624;37.304;2022-12-29T00:29:49;98736.03;;;-0.31;71.84
74913;BME280;63878;55.624;37.304;2022-12-29T00:39:50;98740.75;;;-0.45;72.34
74913;BME280;63878;55.624;37.304;2022-12-29T00:49:50;98753.78;;;-0.51;72.47
74913;BME280;63878;55.624;37.304;2022-12-29T00:59:51;98742.06;;;-0.62;73.21
74913;BME280;63878;55.624;37.304;2022-12-29T01:09:51;98754.91;;;-0.62;73.08
74913;BME280;63878;55.624;37.304;2022-12-29T01:19:52;98754.28;;;-0.70;73.33
74913;BME280;63878;55.624;37.304;2022-12-29T01:29:52;98763.13;;;-0.78;73.40
74913;BME280;63878;55.624;37.304;2022-12-29T01:39:53;98763.34;;;-0.86;73.40
74913;BME280;63878;55.624;37.304;2022-12-29T01:49:56;98755.19;;;-1.02;73.19
74913;BME280;63878;55.624;37.304;2022-12-29T02:00:07;98736.47;;;-1.05;73.92
74913;BME280;63878;55.624;37.304;2022-12-29T02:10:08;98763.63;;;-0.97;73.67
74913;BME280;63878;55.624;37.304;2022-12-29T02:30:45;98774.94;;;-1.04;73.53
74913;BME280;63878;55.624;37.304;2022-12-29T02:41:23;98782.19;;;-1.18;73.78
74913;BME280;63878;55.624;37.304;2022-12-29T03:22:24;98793.59;;;-1.30;73.29
74913;BME280;63878;55.624;37.304;2022-12-29T03:32:31;98800.28;;;-1.23;73.68
74913;BME280;63878;55.624;37.304;2022-12-29T03:42:35;98807.94;;;-1.21;73.79
74913;BME280;63878;55.624;37.304;2022-12-29T03:52:36;98817.06;;;-1.10;72.68
74913;BME280;63878;55.624;37.304;2022-12-29T04:02:36;98827.50;;;-1.16;72.88
74913;BME280;63878;55.624;37.304;2022-12-29T04:12:37;98834.19;;;-1.44;73.58
74913;BME280;63878;55.624;37.304;2022-12-29T04:22:37;98840.47;;;-1.22;73.27
74913;BME280;63878;55.624;37.304;2022-12-29T04:32:38;98841.66;;;-1.35;72.71
74913;BME280;63878;55.624;37.304;2022-12-29T04:42:38;98847.53;;;-1.30;72.85
74913;BME280;63878;55.624;37.304;2022-12-29T04:52:39;98869.03;;;-1.32;73.18
74913;BME280;63878;55.624;37.304;2022-12-29T05:02:39;98862.22;;;-1.35;72.29
74913;BME280;63878;55.624;37.304;2022-12-29T05:12:40;98883.78;;;-1.42;72.05
74913;BME280;63878;55.624;37.304;2022-12-29T05:22:40;98886.47;;;-1.47;72.78
74913;BME280;63878;55.624;37.304;2022-12-29T05:32:41;98892.59;;;-1.52;72.78
74913;BME280;63878;55.624;37.304;2022-12-29T05:42:41;98893.53;;;-1.56;72.48
74913;BME280;63878;55.624;37.304;2022-12-29T05:52:42;98886.31;;;-1.41;70.53
74913;BME280;63878;55.624;37.304;2022-12-29T06:02:43;98893.31;;;-1.46;71.23
74913;BME280;63878;55.624;37.304;2022-12-29T06:12:43;98907.25;;;-1.57;72.81
74913;BME280;63878;55.624;37.304;2022-12-29T06:22:45;98905.31;;;-1.48;71.61
74913;BME280;63878;55.624;37.304;2022-12-29T06:32:46;98915.56;;;-1.46;71.20
74913;BME280;63878;55.624;37.304;2022-12-29T06:42:46;98907.13;;;-1.51;72.25
74913;BME280;63878;55.624;37.304;2022-12-29T06:52:47;98912.66;;;-1.70;72.12
74913;BME280;63878;55.624;37.304;2022-12-29T07:02:47;98911.00;;;-1.33;72.21
74913;BME280;63878;55.624;37.304;2022-12-29T07:12:50;98922.34;;;-1.08;70.71
74913;BME280;63878;55.624;37.304;2022-12-29T07:22:51;98911.97;;;-1.03;70.34
74913;BME280;63878;55.624;37.304;2022-12-29T07:32:54;98913.19;;;-1.18;71.55
74913;BME280;63878;55.624;37.304;2022-12-29T07:42:54;98914.69;;;-1.10;70.79
74913;BME280;63878;55.624;37.304;2022-12-29T07:52:55;98919.47;;;-1.30;71.98
74913;BME280;63878;55.624;37.304;2022-12-29T08:02:55;98933.84;;;-1.23;71.67
74913;BME280;63878;55.624;37.304;2022-12-29T08:12:58;98934.03;;;-1.30;71.88
